CheckWX is a tool to help pilots better visualize weather data.  It is not intended as a substitute for an official pre-flight weather briefing.

19:45:26 UTC

KHPN METAR
Westchester County Airport
White Plains, New York, USA
Current

49 mins ago

KHPN 271856Z 29007KT 10SM BKN047 05/M03 A2962 RMK AO2 SLP037 T00501033
Observed
Jan-27 @ 18:56 UTC
Wind
  • 290° at 7 KTS
Visibility
10 SM
Flight Rules
VFR
Cloud Levels
  • Broken at 4,700' AGL
Temperature
C / 41°F
Dewpoint
-3°C / 27°F
Humidity
57%
Altimeter
29.62" Hg
Pressure
1003.02 hPa
Previous

2 hours ago

KHPN 271756Z 30011G15KT 10SM SCT037 BKN047 05/M03 A2964 RMK AO2 SLP041 T00501033 10050 20011 58012
Observed
Jan-27 @ 17:56 UTC
Wind
  • 300° at 11 KTS
  • Gusting to 15 KTS
Visibility
10 SM
Flight Rules
VFR
Cloud Levels
  • Scattered at 3,700' AGL
  • Broken at 4,700' AGL
Temperature
C / 41°F
Dewpoint
-3°C / 27°F
Humidity
57%
Altimeter
29.64" Hg
Pressure
1003.72 hPa
Previous

3 hours ago

KHPN 271656Z VRB05KT 10SM BKN039 04/M03 A2965 RMK AO2 SLP047 T00441028
Observed
Jan-27 @ 16:56 UTC
Wind
  • Variable at 5 KTS
Visibility
10 SM
Flight Rules
VFR
Cloud Levels
  • Broken at 3,900' AGL
Temperature
C / 39°F
Dewpoint
-3°C / 27°F
Humidity
61%
Altimeter
29.65" Hg
Pressure
1004.02 hPa